Time;durP1;ratioP1;P1;durP2;ratioP2;P2;SDS_P1;SDS_P2;PMS_P1;PMS_P2;Temp;Humidity;BMP_temperature;BMP_pressure;BME280_temperature;BME280_humidity;BME280_pressure;Samples;Min_cycle;Max_cycle;Signal;HPM_P1;HPM_P2
2021/12/14 00:00:53;;;;;;;21.52;6.90;;;7.40;84.70;;;6.53;71.17;95834.91;5050938;28;20263;-81
2021/12/14 00:03:25;;;;;;;19.65;6.55;;;7.40;84.70;;;6.50;70.81;95846.44;5049937;28;20231;-80
2021/12/14 00:05:53;;;;;;;11.13;6.95;;;7.40;84.60;;;6.55;71.25;95853.84;5051141;28;20248;-80
2021/12/14 00:08:21;;;;;;;8.70;5.43;;;7.30;84.50;;;6.55;71.23;95859.06;5034487;28;20206;-80
2021/12/14 00:13:31;;;;;;;12.48;6.20;;;7.40;84.60;;;6.56;71.32;95858.09;5033676;28;20662;-81
2021/12/14 00:15:59;;;;;;;9.05;6.15;;;7.40;84.70;;;6.57;71.22;95854.53;5037228;28;20855;-80
2021/12/14 00:18:26;;;;;;;16.30;6.57;;;7.40;84.70;;;6.56;71.03;95858.09;5021591;28;20204;-81
2021/12/14 00:21:03;;;;;;;13.55;6.60;;;7.40;84.60;;;6.55;71.12;95865.09;5038227;28;20266;-81
2021/12/14 00:26:20;;;;;;;22.50;6.38;;;7.40;84.50;;;6.52;71.00;95859.34;5040512;28;20220;-81
2021/12/14 00:28:50;;;;;;;18.08;6.88;;;7.30;84.40;;;6.51;71.04;95853.31;5038365;28;20195;-80
2021/12/14 00:31:19;;;;;;;29.15;6.95;;;7.30;84.40;;;6.40;71.19;95846.47;5038189;28;20225;-79
2021/12/14 00:33:55;;;;;;;35.85;6.78;;;7.30;84.50;;;6.49;71.26;95854.41;5020737;28;20261;-80
2021/12/14 00:36:23;;;;;;;26.33;6.90;;;7.40;84.60;;;6.48;71.38;95855.38;5021766;28;20572;-80
2021/12/14 00:38:56;;;;;;;23.75;6.95;;;7.40;84.70;;;6.47;71.45;95857.16;5054650;28;20206;-81
2021/12/14 00:41:30;;;;;;;42.15;6.95;;;7.30;84.60;;;6.45;71.29;95846.06;5037923;28;20742;-81
2021/12/14 00:43:58;;;;;;;43.15;7.00;;;7.30;84.60;;;6.46;71.18;95855.53;5049368;28;20196;-81
2021/12/14 00:46:26;;;;;;;17.50;6.28;;;7.30;84.50;;;6.41;71.16;95842.91;5034457;28;20745;-81
2021/12/14 00:48:55;;;;;;;28.40;6.43;;;7.30;84.50;;;6.43;70.94;95840.16;5018023;28;20235;-80
2021/12/14 00:51:27;;;;;;;37.88;6.82;;;7.30;84.40;;;6.37;71.16;95844.19;5034402;28;20670;-81
2021/12/14 00:53:59;;;;;;;39.83;7.03;;;7.30;84.40;;;6.39;70.98;95841.41;5064542;28;20228;-80
2021/12/14 00:56:26;;;;;;;38.67;6.57;;;7.30;84.40;;;6.35;71.29;95843.50;5037545;28;20257;-80
2021/12/14 00:58:53;;;;;;;20.02;6.30;;;7.20;84.40;;;6.36;71.07;95850.34;5037613;28;20286;-80
2021/12/14 01:01:28;;;;;;;14.15;6.10;;;7.20;84.40;;;6.33;71.00;95845.41;5037088;28;20223;-80
2021/12/14 01:04:03;;;;;;;15.63;6.05;;;7.20;84.40;;;6.30;71.52;95856.13;5021483;28;20298;-80
2021/12/14 01:06:37;;;;;;;31.83;6.78;;;7.20;84.60;;;6.31;71.61;95851.72;5017593;28;20204;-81
2021/12/14 01:09:07;;;;;;;26.90;6.28;;;7.20;84.70;;;6.32;71.62;95853.38;5015132;28;20227;-80
2021/12/14 01:11:42;;;;;;;19.17;5.82;;;7.20;84.70;;;6.33;71.56;95853.22;5020744;28;20216;-81
2021/12/14 01:14:25;;;;;;;30.75;6.20;;;7.20;84.70;;;6.32;71.44;95859.38;5021216;28;20230;-80
2021/12/14 01:17:12;;;;;;;33.15;6.35;;;7.20;84.70;;;6.31;71.22;95852.56;5020904;28;20211;-80
2021/12/14 01:19:51;;;;;;;47.30;6.38;;;7.20;84.60;;;6.31;71.27;95855.16;5037670;28;20570;-80
2021/12/14 01:27:54;;;;;;;22.42;5.75;;;7.10;84.50;;;6.22;71.10;95856.81;5034665;28;20253;-80
2021/12/14 01:30:55;;;;;;;32.45;6.60;;;7.10;84.60;;;6.24;71.57;95860.09;5030193;28;20220;-80
2021/12/14 01:33:24;;;;;;;35.55;6.07;;;7.10;84.60;;;6.22;71.72;95859.41;5048045;28;20203;-80
2021/12/14 01:35:54;;;;;;;27.02;5.60;;;7.10;84.60;;;6.23;71.55;95852.44;5036538;28;20223;-80
2021/12/14 01:41:01;;;;;;;38.70;5.97;;;7.10;84.70;;;6.28;71.55;95859.84;5037096;28;20234;-79
2021/12/14 01:43:48;;;;;;;16.90;5.88;;;7.10;84.70;;;6.27;71.61;95860.78;5037190;28;20215;-80
2021/12/14 01:46:43;;;;;;;22.50;5.57;;;7.10;85.60;;;6.25;71.59;95861.75;5037511;28;20192;-80
2021/12/14 01:49:38;;;;;;;12.43;5.22;;;7.10;84.80;;;6.23;71.89;95863.66;5040216;28;20240;-80
2021/12/14 01:52:30;;;;;;;15.77;5.43;;;7.10;84.80;;;6.25;71.90;95860.94;5039293;28;20200;-80
2021/12/14 01:55:07;;;;;;;9.80;5.35;;;7.10;84.80;;;6.21;72.20;95854.34;5036023;28;20220;-80
2021/12/14 01:57:35;;;;;;;13.98;5.18;;;7.10;84.90;;;6.29;71.50;95861.47;5036310;28;20210;-81
2021/12/14 02:00:10;;;;;;;10.35;4.97;;;7.10;84.80;;;6.29;71.66;95864.09;5019985;28;20619;-80
2021/12/14 02:02:43;;;;;;;11.00;4.75;;;7.10;84.90;;;6.27;71.42;95861.59;5052970;28;20199;-80
2021/12/14 02:05:31;;;;;;;9.90;4.60;;;7.10;84.80;;;6.30;71.33;95866.53;5036839;28;20220;-80
2021/12/14 02:08:02;;;;;;;11.43;5.07;;;7.20;84.90;;;6.30;71.67;95863.94;5036106;28;20199;-80
2021/12/14 02:10:36;;;;;;;29.25;6.20;;;7.10;84.80;;;6.31;71.84;95864.75;5036163;28;20216;-80
2021/12/14 02:13:06;;;;;;;18.05;5.53;;;7.20;85.00;;;6.34;71.77;95865.28;5035397;28;20184;-80
2021/12/14 02:15:43;;;;;;;27.77;6.05;;;7.20;85.00;;;6.39;71.68;95873.50;5035870;28;20686;-79
2021/12/14 02:18:20;;;;;;;18.52;5.85;;;7.20;85.10;;;6.42;71.73;95864.59;5037217;28;20204;-79
2021/12/14 02:21:05;;;;;;;14.57;6.13;;;7.20;85.10;;;6.42;71.48;95862.00;5019522;28;20232;-79
2021/12/14 02:23:37;;;;;;;24.67;6.60;;;7.20;85.90;;;6.47;71.58;95867.59;5019580;28;20295;-81
2021/12/14 02:26:10;;;;;;;16.52;5.63;;;7.20;85.00;;;6.39;71.73;95851.84;5052916;28;20274;-79
2021/12/14 02:28:38;;;;;;;21.58;6.25;;;7.30;85.10;;;6.46;71.91;95858.13;5035947;28;20291;-79
2021/12/14 02:31:10;;;;;;;12.13;5.60;;;7.40;85.30;;;6.52;71.87;95856.75;5034983;28;20203;-80
2021/12/14 02:33:42;;;;;;;18.45;5.60;;;7.30;85.20;;;6.55;71.53;95854.69;5019390;28;20203;-79
2021/12/14 02:36:20;;;;;;;12.02;5.00;;;7.30;85.20;;;6.57;71.65;95857.94;5019263;28;20204;-79
2021/12/14 02:38:53;;;;;;;23.10;5.05;;;7.30;85.20;;;6.60;71.50;95853.41;5017744;28;20253;-80
2021/12/14 02:41:21;;;;;;;15.05;5.13;;;7.40;85.10;;;6.61;71.50;95866.28;5026776;28;20685;-80
2021/12/14 02:43:56;;;;;;;22.08;5.55;;;7.40;85.10;;;6.63;71.55;95868.75;5058040;28;20209;-79
2021/12/14 02:46:41;;;;;;;12.23;4.90;;;7.40;85.10;;;6.64;71.32;95862.56;5035267;28;20246;-79
2021/12/14 02:49:14;;;;;;;12.38;5.15;;;7.40;85.00;;;6.64;71.37;95862.56;5018176;28;20228;-79
2021/12/14 02:51:56;;;;;;;9.20;4.93;;;7.40;85.00;;;6.65;71.40;95865.06;5016924;28;20195;-79
2021/12/14 02:54:48;;;;;;;10.00;5.38;;;7.40;85.00;;;6.63;71.73;95860.94;5050268;28;20225;-80
2021/12/14 02:57:27;;;;;;;11.38;5.15;;;7.50;85.10;;;6.66;71.29;95863.25;5030766;28;20207;-80
2021/12/14 02:59:56;;;;;;;10.80;5.30;;;7.50;85.10;;;6.68;71.92;95861.34;5051863;28;20243;-79
2021/12/14 03:02:31;;;;;;;8.90;4.88;;;7.50;85.20;;;6.72;71.61;95860.09;5034157;28;20200;-80
2021/12/14 03:05:12;;;;;;;7.93;4.88;;;7.50;85.10;;;6.73;71.34;95861.72;5032493;28;20216;-80
2021/12/14 03:07:47;;;;;;;8.48;5.35;;;7.50;85.10;;;6.76;71.35;95863.22;5033402;28;20207;-79
2021/12/14 03:10:50;;;;;;;8.55;4.75;;;7.50;85.00;;;6.77;71.80;95862.25;5033023;28;20607;-79
2021/12/14 03:13:19;;;;;;;12.30;5.20;;;7.60;85.00;;;6.77;71.32;95850.03;5036541;28;20642;-80
2021/12/14 03:15:53;;;;;;;5.57;4.60;;;7.60;85.00;;;6.71;71.13;95843.63;5065889;28;20227;-80
2021/12/14 03:18:38;;;;;;;9.73;4.68;;;7.60;85.00;;;6.79;71.29;95844.69;5050954;28;20188;-80
2021/12/14 03:21:26;;;;;;;8.63;4.85;;;7.60;84.90;;;6.80;71.45;95848.91;5051189;28;20322;-80
2021/12/14 03:24:10;;;;;;;7.68;4.03;;;7.60;84.90;;;6.75;70.77;95845.94;5041824;28;20188;-80
2021/12/14 03:26:43;;;;;;;10.18;4.90;;;7.60;84.80;;;6.78;70.91;95845.66;5064049;28;20191;-80
2021/12/14 03:29:24;;;;;;;6.13;4.85;;;7.60;84.80;;;6.73;71.01;95846.09;5029465;28;20603;-79
2021/12/14 03:31:56;;;;;;;12.82;4.28;;;7.60;84.70;;;6.77;70.98;95849.22;5032221;28;20183;-79
2021/12/14 03:34:38;;;;;;;13.88;4.80;;;7.60;84.60;;;6.73;70.90;95846.09;5032825;28;20215;-79
2021/12/14 03:37:14;;;;;;;13.93;5.07;;;7.60;84.60;;;6.75;70.76;95848.53;5065486;28;20262;-79
2021/12/14 03:39:54;;;;;;;16.30;5.40;;;7.60;84.70;;;6.75;71.13;95848.53;5034414;28;20609;-79
2021/12/14 03:42:42;;;;;;;13.95;5.10;;;7.60;84.70;;;6.72;70.95;95847.84;5065896;28;20226;-80
2021/12/14 03:45:20;;;;;;;10.63;4.57;;;7.60;84.80;;;6.75;71.24;95838.94;5022334;28;20215;-79
2021/12/14 03:47:55;;;;;;;14.73;5.07;;;7.60;84.80;;;6.80;70.86;95847.16;5032784;28;20204;-80
2021/12/14 03:50:31;;;;;;;16.50;5.07;;;7.60;84.90;;;6.81;71.16;95835.75;5030780;28;20242;-81
2021/12/14 03:53:00;;;;;;;18.05;4.90;;;7.70;85.00;;;6.81;71.01;95843.59;5032055;28;20184;-80
2021/12/14 03:55:34;;;;;;;15.48;5.22;;;7.60;84.90;;;6.83;70.94;95840.81;5030596;28;20243;-81
2021/12/14 03:58:12;;;;;;;13.55;5.05;;;7.60;84.80;;;6.74;70.85;95826.88;5048341;28;20286;-81
2021/12/14 04:00:51;;;;;;;17.40;5.38;;;7.60;84.70;;;6.81;70.73;95840.13;5035616;28;20311;-81
2021/12/14 04:03:20;;;;;;;27.08;5.70;;;7.60;84.70;;;6.78;70.45;95838.63;5029964;28;20207;-81
2021/12/14 04:06:02;;;;;;;20.50;5.47;;;7.60;84.60;;;6.71;70.63;95832.38;5029839;28;20282;-81
2021/12/14 04:08:31;;;;;;;20.65;5.15;;;7.60;84.50;;;6.67;70.91;95831.03;5072324;28;20204;-79
2021/12/14 04:11:02;;;;;;;16.23;5.32;;;7.60;84.50;;;6.71;70.43;95840.19;5024952;28;20219;-81
2021/12/14 04:13:35;;;;;;;21.13;5.18;;;7.60;84.40;;;6.61;70.89;95829.00;5055609;28;20219;-80
2021/12/14 04:16:08;;;;;;;24.10;5.72;;;7.60;84.50;;;6.67;70.79;95844.06;5023169;28;20204;-81
2021/12/14 04:18:35;;;;;;;14.52;5.63;;;7.60;84.50;;;6.66;70.98;95845.00;5011901;28;20203;-80
2021/12/14 04:21:05;;;;;;;20.33;5.82;;;7.50;84.50;;;6.65;70.80;95845.97;5033548;28;20715;-81
2021/12/14 04:23:42;;;;;;;19.17;5.45;;;7.50;84.50;;;6.62;70.83;95843.69;5025848;28;20193;-80
2021/12/14 04:26:12;;;;;;;14.50;5.50;;;7.50;84.50;;;6.62;70.98;95854.91;5017317;28;20207;-80
2021/12/14 04:28:49;;;;;;;18.48;5.30;;;7.50;84.40;;;6.59;70.95;95860.41;5050418;28;20676;-80
2021/12/14 04:31:19;;;;;;;18.23;5.05;;;7.50;84.40;;;6.59;70.75;95855.19;5064313;28;20269;-80
2021/12/14 04:33:49;;;;;;;10.40;5.00;;;7.50;84.30;;;6.56;70.76;95856.28;5050406;28;20245;-80
2021/12/14 04:36:24;;;;;;;11.13;5.13;;;7.40;84.30;;;6.53;70.96;95854.00;5043393;28;20207;-80
2021/12/14 04:39:28;;;;;;;13.05;5.13;;;7.50;84.40;;;6.52;70.98;95849.75;5025063;28;20200;-79
2021/12/14 04:53:11;;;;;;;24.02;5.15;;;7.40;84.50;;;6.45;70.93;95838.25;5068961;28;20202;-81
2021/12/14 04:55:44;;;;;;;20.42;5.32;;;7.30;84.50;;;6.44;70.99;95839.19;5025566;28;20213;-81
2021/12/14 04:58:13;;;;;;;12.20;5.20;;;7.30;84.50;;;6.40;71.03;95830.03;5038763;28;20593;-80
2021/12/14 05:00:49;;;;;;;16.73;5.18;;;7.30;84.50;;;6.45;70.99;95834.81;5031351;28;20223;-81
2021/12/14 05:03:36;;;;;;;17.20;5.40;;;7.30;84.60;;;6.43;71.11;95834.94;5034317;28;20204;-81
2021/12/14 05:06:17;;;;;;;15.30;5.22;;;7.30;84.60;;;6.46;71.21;95834.69;5033605;28;20443;-82
2021/12/14 05:11:43;;;;;;;14.73;5.75;;;7.30;84.70;;;6.46;71.32;95839.88;5033566;28;20834;-81
2021/12/14 05:14:11;;;;;;;33.80;6.05;;;7.30;84.60;;;6.46;71.15;95837.28;5063222;28;20270;-81
2021/12/14 05:16:44;;;;;;;15.35;5.25;;;7.30;84.70;;;6.48;71.49;95842.34;5035843;28;20725;-81
2021/12/14 05:19:33;;;;;;;25.83;6.25;;;7.30;84.70;;;6.46;71.15;95837.28;5022399;28;20212;-80
2021/12/14 05:22:08;;;;;;;17.33;5.65;;;7.30;84.80;;;6.48;71.31;95840.56;5012989;28;20239;-81
2021/12/14 05:24:48;;;;;;;11.82;5.25;;;7.30;84.80;;;6.48;71.20;95840.56;5063280;28;20582;-81
2021/12/14 05:27:26;;;;;;;18.80;6.35;;;7.30;84.70;;;6.40;71.03;95824.81;5014761;28;20207;-81
2021/12/14 05:30:34;;;;;;;18.90;7.75;;;7.40;85.60;;;6.47;71.18;95838.94;5066302;28;20223;-80
2021/12/14 05:33:18;;;;;;;18.50;6.78;;;7.30;84.80;;;6.47;71.53;95838.09;5045720;28;20208;-81
2021/12/14 05:35:50;;;;;;;17.85;6.03;;;7.40;84.80;;;6.48;71.27;95832.75;5037121;28;20251;-80
2021/12/14 05:38:40;;;;;;;20.30;6.22;;;7.40;84.80;;;6.44;71.56;95822.75;5037359;28;20366;-80
2021/12/14 05:44:25;;;;;;;23.20;5.65;;;7.40;84.80;;;6.48;71.17;95827.53;5056892;28;20231;-80
2021/12/14 05:47:10;;;;;;;17.63;5.85;;;7.30;84.70;;;6.49;71.32;95834.38;5038207;28;20192;-81
2021/12/14 05:49:53;;;;;;;12.55;5.65;;;7.40;84.90;;;6.45;71.52;95825.22;5055973;28;20224;-81
2021/12/14 05:52:26;;;;;;;12.45;5.90;;;7.30;84.80;;;6.48;71.54;95842.34;5035802;28;20582;-81
2021/12/14 05:54:57;;;;;;;17.63;6.60;;;7.40;84.90;;;6.49;71.69;95830.97;5037020;28;20227;-80
2021/12/14 05:57:27;;;;;;;23.23;5.68;;;7.40;85.00;;;6.46;71.87;95832.06;5019820;28;20680;-80
2021/12/14 05:59:55;;;;;;;25.50;6.10;;;7.30;85.00;;;6.49;71.81;95834.38;5036597;28;20224;-80
2021/12/14 06:02:24;;;;;;;23.90;5.90;;;7.30;85.00;;;6.48;71.67;95830.16;5019923;28;20228;-79
2021/12/14 06:04:55;;;;;;;19.17;5.88;;;7.40;85.00;;;6.51;71.85;95831.66;5020432;28;20223;-80
2021/12/14 06:07:25;;;;;;;15.60;5.78;;;7.40;85.00;;;6.53;71.54;95840.13;5020338;28;20208;-80
2021/12/14 06:09:54;;;;;;;18.33;6.07;;;7.40;85.00;;;6.52;71.81;95836.72;5020558;28;20698;-80
2021/12/14 06:12:36;;;;;;;9.10;5.80;;;7.40;85.00;;;6.48;71.51;95822.34;5042388;28;20204;-80
2021/12/14 06:15:14;;;;;;;9.63;5.38;;;7.40;84.90;;;6.47;71.73;95818.06;5032943;28;20220;-79
2021/12/14 06:17:42;;;;;;;20.17;5.88;;;7.40;85.00;;;6.54;71.53;95813.94;5049430;28;20278;-80
2021/12/14 06:20:32;;;;;;;17.40;6.07;;;7.40;85.00;;;6.54;71.70;95815.69;5030193;28;20228;-80
2021/12/14 06:23:01;;;;;;;16.00;6.00;;;7.40;85.00;;;6.53;71.56;95804.47;5051454;28;20216;-80
2021/12/14 06:25:49;;;;;;;11.85;5.18;;;7.40;85.00;;;6.57;71.56;95815.44;5038644;28;20239;-80
2021/12/14 06:28:24;;;;;;;15.43;5.10;;;7.40;85.00;;;6.57;71.74;95816.25;5035915;28;20204;-80
2021/12/14 06:30:53;;;;;;;7.45;5.18;;;7.40;85.00;;;6.55;71.69;95819.97;5035820;28;20224;-80
2021/12/14 06:33:21;;;;;;;6.40;4.80;;;7.40;85.00;;;6.56;71.44;95819.00;5019645;28;20202;-80
2021/12/14 06:35:53;;;;;;;6.15;4.95;;;7.40;84.90;;;6.57;71.47;95818.03;5019278;28;20224;-80
2021/12/14 06:38:29;;;;;;;6.25;4.55;;;7.40;85.00;;;6.56;71.65;95819.81;5020816;28;20196;-80
2021/12/14 06:41:03;;;;;;;6.15;4.30;;;7.40;85.00;;;6.59;71.97;95826.50;5035240;28;20227;-80
2021/12/14 06:43:45;;;;;;;5.97;4.45;;;7.40;85.10;;;6.59;71.57;95823.91;5048594;28;20204;-80
2021/12/14 06:46:20;;;;;;;4.15;3.75;;;7.40;85.10;;;6.61;71.73;95821.97;5047087;28;20608;-80
2021/12/14 06:48:55;;;;;;;5.07;4.32;;;7.50;85.10;;;6.62;71.86;95813.19;5035397;28;20231;-79
2021/12/14 06:51:35;;;;;;;4.80;4.25;;;7.40;85.10;;;6.61;71.75;95808.16;5060552;28;20739;-80
2021/12/14 06:54:14;;;;;;;6.57;4.47;;;7.50;85.20;;;6.66;71.62;95813.72;5025780;28;20248;-79
2021/12/14 06:56:43;;;;;;;8.60;4.38;;;7.50;85.20;;;6.66;71.90;95817.16;5052216;28;20685;-80
2021/12/14 06:59:49;;;;;;;5.47;4.28;;;7.50;85.20;;;6.69;71.84;95822.09;5052330;28;20309;-80
2021/12/14 07:02:25;;;;;;;5.72;4.45;;;7.50;85.10;;;6.72;71.61;95816.56;5036078;28;20241;-80
2021/12/14 07:04:59;;;;;;;7.68;4.45;;;7.50;85.20;;;6.69;71.61;95808.25;5036382;28;20223;-80
2021/12/14 07:07:32;;;;;;;8.25;4.70;;;7.50;85.10;;;6.76;71.05;95809.28;5052309;28;20207;-80
2021/12/14 07:10:07;;;;;;;5.70;3.97;;;7.50;85.10;;;6.78;71.22;95811.75;5051233;28;20220;-80
2021/12/14 07:12:38;;;;;;;5.55;4.10;;;7.60;85.00;;;6.78;71.13;95804.75;5051585;28;20549;-81
2021/12/14 07:15:17;;;;;;;8.57;4.13;;;7.60;85.00;;;6.78;71.51;95812.56;5034773;28;20315;-80
2021/12/14 07:18:00;;;;;;;8.07;3.70;;;7.60;85.10;;;6.80;71.57;95810.66;5051465;28;20191;-80
2021/12/14 07:20:38;;;;;;;6.13;3.85;;;7.60;85.20;;;6.79;71.56;95795.97;5036111;28;20234;-80
2021/12/14 07:23:23;;;;;;;6.88;3.83;;;7.60;85.20;;;6.87;71.52;95810.88;5018359;28;20588;-79
2021/12/14 07:26:04;;;;;;;8.50;3.17;;;7.60;85.20;;;6.92;71.44;95813.03;5017871;28;20246;-80
2021/12/14 07:28:37;;;;;;;10.88;3.97;;;7.60;85.20;;;6.93;71.44;95807.66;5017708;28;20275;-80
2021/12/14 07:31:16;;;;;;;6.57;3.05;;;7.70;85.30;;;6.95;71.54;95803.13;5034690;28;20204;-80
2021/12/14 07:33:53;;;;;;;7.18;3.55;;;7.70;85.30;;;7.01;71.37;95823.41;5034798;28;20207;-80
2021/12/14 07:36:32;;;;;;;13.93;3.30;;;7.70;85.30;;;7.00;71.45;95807.91;5034851;28;20191;-80
2021/12/14 07:39:12;;;;;;;9.75;3.63;;;7.70;85.30;;;7.06;71.19;95809.94;5031555;28;20256;-80
2021/12/14 07:41:47;;;;;;;13.23;3.80;;;7.80;85.30;;;7.11;71.14;95812.91;5031647;28;20220;-80
2021/12/14 07:44:36;;;;;;;16.80;3.38;;;7.80;85.40;;;7.14;71.02;95812.63;5064367;28;20467;-80
2021/12/14 07:47:17;;;;;;;15.25;3.75;;;7.80;85.30;;;7.16;71.46;95815.91;5050963;28;20188;-81
2021/12/14 07:49:55;;;;;;;16.25;3.70;;;7.80;85.30;;;7.19;71.05;95814.81;5050281;28;20216;-80
2021/12/14 07:52:30;;;;;;;23.02;4.05;;;7.90;85.40;;;7.15;71.16;95795.19;5035238;28;20192;-80
2021/12/14 07:55:03;;;;;;;17.92;3.88;;;7.90;85.30;;;7.21;71.20;95795.41;5034664;28;20681;-79
2021/12/14 07:57:34;;;;;;;20.83;3.50;;;7.90;85.40;;;7.30;71.16;95798.91;5050972;28;20191;-80
2021/12/14 08:00:20;;;;;;;21.27;3.85;;;7.90;85.40;;;7.34;71.09;95789.00;5034050;28;20303;-80
2021/12/14 08:02:55;;;;;;;10.05;3.90;;;7.90;85.50;;;7.33;70.87;95787.34;5033556;28;20296;-80
2021/12/14 08:05:52;;;;;;;16.30;3.70;;;8.00;85.50;;;7.36;70.98;95789.66;5051237;28;20696;-80
2021/12/14 08:08:45;;;;;;;15.00;4.05;;;8.00;85.50;;;7.41;71.27;95784.81;5050609;28;20223;-79
2021/12/14 08:14:13;;;;;;;11.40;3.80;;;8.20;85.60;;;7.50;71.14;95796.16;5051023;28;20246;-80
2021/12/14 08:17:02;;;;;;;12.60;4.05;;;8.10;85.50;;;7.50;71.11;95790.94;5051083;28;20180;-80
2021/12/14 08:19:35;;;;;;;7.65;4.30;;;8.20;85.60;;;7.55;71.18;95791.28;5059013;28;20586;-80
2021/12/14 08:22:29;;;;;;;6.97;3.85;;;8.20;85.50;;;7.56;70.94;95792.94;5014974;28;20327;-80
2021/12/14 08:24:57;;;;;;;7.72;3.58;;;8.20;85.40;;;7.58;71.00;95795.38;5030967;28;20224;-79
2021/12/14 08:27:28;;;;;;;7.25;4.10;;;8.30;85.50;;;7.60;71.17;95801.28;5030872;28;20242;-80
2021/12/14 08:30:00;;;;;;;6.20;4.13;;;8.30;85.40;;;7.63;70.97;95801.81;5014792;28;20225;-80
2021/12/14 08:32:37;;;;;;;5.00;4.00;;;8.30;85.30;;;7.66;70.99;95801.50;5030968;28;20193;-80
2021/12/14 08:35:10;;;;;;;12.52;4.03;;;8.30;85.30;;;7.67;71.12;95794.50;5066552;28;20243;-80
2021/12/14 08:37:52;;;;;;;15.05;4.55;;;8.40;85.40;;;7.69;70.86;95790.75;5053716;28;20204;-80
2021/12/14 08:40:37;;;;;;;9.05;4.10;;;8.40;85.40;;;7.76;70.86;95811.03;5038002;28;20219;-79
2021/12/14 08:43:21;;;;;;;8.23;4.53;;;8.40;85.30;;;7.77;70.88;95803.03;5037725;28;20278;-80
2021/12/14 08:45:55;;;;;;;11.27;4.05;;;8.40;85.30;;;7.77;71.00;95799.63;5039138;28;20235;-80
2021/12/14 08:48:30;;;;;;;17.00;4.70;;;8.50;85.30;;;7.78;71.05;95796.03;5036897;28;20199;-80
2021/12/14 08:51:22;;;;;;;11.52;4.00;;;8.50;85.30;;;7.86;71.01;95796.09;5036246;28;20816;-80
2021/12/14 08:53:59;;;;;;;13.70;3.80;;;8.50;85.40;;;7.84;71.07;95800.66;5051912;28;20196;-81
2021/12/14 08:56:32;;;;;;;11.02;4.47;;;8.50;85.50;;;7.95;70.85;95810.84;5070453;28;20226;-80
2021/12/14 08:59:00;;;;;;;17.88;3.70;;;8.50;85.50;;;7.92;71.13;95798.09;5037649;28;20246;-80
2021/12/14 09:01:30;;;;;;;11.32;3.50;;;8.50;85.50;;;8.04;71.00;95808.28;5086590;28;20212;-80
2021/12/14 09:04:07;;;;;;;7.00;3.42;;;8.60;85.50;;;8.08;71.30;95814.84;5037484;28;20211;-80
2021/12/14 09:06:39;;;;;;;7.97;3.53;;;8.60;85.50;;;8.12;71.00;95813.56;5052722;28;20224;-81
2021/12/14 09:09:14;;;;;;;5.03;3.33;;;8.70;85.60;;;8.10;70.82;95792.81;5019895;28;20697;-81
2021/12/14 09:11:47;;;;;;;5.20;3.05;;;8.70;85.60;;;8.22;71.08;95803.81;5051134;28;20211;-80
2021/12/14 09:14:16;;;;;;;9.07;5.22;;;8.70;85.70;;;8.29;70.91;95801.44;5030904;28;20220;-78
2021/12/14 09:16:49;;;;;;;15.57;6.38;;;8.80;85.80;;;8.30;70.91;95798.66;5084939;28;20184;-78
2021/12/14 09:19:28;;;;;;;6.82;4.43;;;8.80;85.80;;;8.45;71.01;95805.91;5068276;28;20216;-78
2021/12/14 09:22:02;;;;;;;7.95;4.30;;;8.90;86.00;;;8.51;71.14;95801.88;5068899;28;20239;-78
2021/12/14 09:24:32;;;;;;;17.15;4.03;;;9.00;86.10;;;8.60;71.20;95806.16;5037256;28;20220;-77
2021/12/14 09:27:07;;;;;;;9.55;3.70;;;9.00;86.10;;;8.68;71.13;95811.44;5037139;28;20204;-78
2021/12/14 09:29:35;;;;;;;5.10;3.33;;;9.10;86.20;;;8.75;71.07;95811.59;5067427;28;20220;-80
2021/12/14 09:32:08;;;;;;;4.45;3.33;;;9.10;86.20;;;8.85;70.93;95801.00;5033497;28;20293;-81
2021/12/14 09:34:39;;;;;;;5.53;3.80;;;9.20;86.20;;;8.94;71.12;95792.22;5021371;28;20212;-80
2021/12/14 09:37:10;;;;;;;12.45;8.27;;;9.30;86.30;;;9.02;70.96;95800.09;5036763;28;20208;-80
2021/12/14 09:39:48;;;;;;;8.57;6.32;;;9.30;86.10;;;9.11;70.98;95796.50;5069857;28;20208;-81
2021/12/14 09:42:23;;;;;;;6.28;4.68;;;9.40;86.20;;;9.18;70.83;95783.59;5025487;28;20615;-80
2021/12/14 09:44:54;;;;;;;5.15;3.88;;;9.50;86.30;;;9.28;70.78;95779.03;5041768;28;20212;-80
2021/12/14 09:47:26;;;;;;;4.53;3.38;;;9.60;86.40;;;9.31;70.49;95777.06;5034998;28;20658;-80
2021/12/14 09:49:54;;;;;;;2.95;2.60;;;9.60;86.10;;;9.35;70.51;95787.06;5040477;28;20313;-80
2021/12/14 09:52:30;;;;;;;2.90;2.30;;;9.70;86.10;;;9.39;70.63;95774.47;5056509;28;20325;-81
2021/12/14 09:55:00;;;;;;;4.18;3.05;;;9.70;86.70;;;9.39;70.99;95780.50;5039355;28;20264;-80
2021/12/14 09:57:33;;;;;;;4.47;3.45;;;9.80;86.10;;;9.48;70.75;95777.91;5055857;28;20616;-80
2021/12/14 10:00:13;;;;;;;4.22;3.35;;;9.90;86.10;;;9.55;70.90;95768.41;5052825;28;20229;-81
2021/12/14 10:02:43;;;;;;;8.52;6.13;;;10.00;85.00;;;9.59;70.91;95754.84;5036344;28;20239;-80
2021/12/14 10:05:25;;;;;;;13.23;9.20;;;10.00;85.10;;;9.77;70.99;95767.72;5018346;28;20222;-80
2021/12/14 10:07:56;;;;;;;6.95;5.03;;;10.10;84.90;;;9.87;71.19;95767.56;5019416;28;20197;-81
2021/12/14 10:10:25;;;;;;;5.45;4.50;;;10.20;85.40;;;9.99;70.96;95760.16;5035601;28;20250;-80
2021/12/14 10:12:55;;;;;;;3.65;3.10;;;10.30;85.50;;;10.10;70.86;95770.28;5052048;28;20253;-82
2021/12/14 10:16:04;;;;;;;3.35;3.05;;;10.50;85.40;;;10.09;70.60;95763.44;5058250;28;20250;-81
2021/12/14 10:18:46;;;;;;;4.25;3.55;;;10.50;84.80;;;10.18;70.30;95760.78;5029749;28;20204;-82
2021/12/14 10:21:35;;;;;;;3.10;2.80;;;10.70;84.60;;;10.15;70.31;95748.03;5011637;28;20200;-81
2021/12/14 10:24:06;;;;;;;2.85;2.55;;;10.60;84.50;;;10.18;70.04;95759.00;5028445;28;20263;-82
2021/12/14 10:26:42;;;;;;;7.10;5.43;;;10.70;84.40;;;10.19;70.14;95750.16;5049401;28;20845;-82
2021/12/14 10:29:10;;;;;;;4.05;3.10;;;10.70;84.00;;;10.21;70.22;95744.72;5068782;28;20260;-82
2021/12/14 10:31:45;;;;;;;3.97;2.75;;;10.70;84.00;;;10.25;70.34;95738.16;5069027;28;20207;-79
2021/12/14 10:34:24;;;;;;;2.30;2.10;;;10.70;84.00;;;10.28;70.06;95737.81;5035551;28;20320;-81
2021/12/14 10:37:09;;;;;;;2.15;1.95;;;10.80;84.10;;;10.26;70.29;95726.69;5046414;28;20216;-82
2021/12/14 10:42:37;;;;;;;1.92;1.80;;;10.70;83.80;;;10.28;70.05;95726.50;5042739;28;20220;-80
2021/12/14 10:45:13;;;;;;;2.05;1.83;;;10.80;83.70;;;10.16;69.69;95718.19;5031806;28;20673;-80
2021/12/14 10:47:41;;;;;;;1.88;1.70;;;10.80;83.90;;;10.26;70.14;95724.06;5064808;28;20669;-80
2021/12/14 10:50:16;;;;;;;1.35;1.25;;;10.80;83.90;;;10.31;70.18;95716.50;5034363;28;20228;-79
2021/12/14 10:52:45;;;;;;;1.20;1.20;;;10.80;83.60;;;10.31;70.34;95700.75;5020653;28;20277;-79
2021/12/14 10:55:43;;;;;;;1.20;1.10;;;10.80;83.90;;;10.39;69.96;95707.81;5020949;28;20223;-80
2021/12/14 10:58:14;;;;;;;1.45;1.10;;;10.80;83.30;;;10.44;69.95;95697.63;5033936;28;20241;-80
2021/12/14 11:00:57;;;;;;;1.30;1.20;;;10.90;83.80;;;10.49;69.95;95697.94;5035337;28;20268;-79
2021/12/14 11:03:31;;;;;;;1.20;1.20;;;10.90;83.50;;;10.56;69.94;95704.13;5032041;28;20327;-79
2021/12/14 11:06:10;;;;;;;1.00;1.00;;;11.00;83.50;;;10.56;69.60;95701.50;5032630;28;20295;-79
2021/12/14 11:09:00;;;;;;;1.30;1.20;;;11.10;83.60;;;10.55;69.48;95710.34;5032783;28;20204;-79
2021/12/14 11:11:36;;;;;;;1.42;1.33;;;11.00;84.10;;;10.51;69.37;95703.81;5034586;28;20247;-81
2021/12/14 11:14:13;;;;;;;1.10;1.10;;;11.00;83.10;;;10.50;69.45;95714.50;5031831;28;20606;-80
2021/12/14 11:19:48;;;;;;;1.20;1.15;;;11.00;82.60;;;10.40;69.26;95719.94;5051744;28;20207;-80
2021/12/14 11:22:17;;;;;;;1.40;1.30;;;11.00;82.80;;;10.37;69.27;95720.28;5035057;28;20195;-81
2021/12/14 11:24:59;;;;;;;1.42;1.33;;;11.00;82.90;;;10.33;69.37;95711.09;5052224;28;20697;-80
2021/12/14 11:27:33;;;;;;;1.27;1.17;;;11.00;82.90;;;10.37;69.36;95720.28;5051455;28;20203;-80
2021/12/14 11:30:24;;;;;;;1.10;1.10;;;10.90;82.80;;;10.38;69.44;95724.53;5035058;28;20697;-80
2021/12/14 11:33:19;;;;;;;1.20;1.10;;;10.90;82.40;;;10.37;69.25;95717.66;5051422;28;20192;-79
2021/12/14 11:35:58;;;;;;;1.17;1.10;;;10.90;82.40;;;10.40;69.30;95726.00;5051358;28;20234;-83
2021/12/14 11:38:47;;;;;;;1.15;1.10;;;10.90;82.70;;;10.39;69.51;95726.19;5067694;28;20199;-82
2021/12/14 11:41:38;;;;;;;1.13;1.10;;;10.90;83.20;;;10.39;69.65;95705.19;5040412;28;20635;-80
2021/12/14 11:44:38;;;;;;;1.30;1.20;;;10.90;82.60;;;10.38;69.42;95706.97;5057808;28;20638;-80
2021/12/14 11:50:21;;;;;;;1.10;1.10;;;10.90;82.60;;;10.36;69.43;95690.63;5056702;28;20597;-79